Time;durP1;ratioP1;P1;durP2;ratioP2;P2;SDS_P1;SDS_P2;PMS_P1;PMS_P2;Temp;Humidity;BMP_temperature;BMP_pressure;BME280_temperature;BME280_humidity;BME280_pressure;Samples;Min_cycle;Max_cycle;Signal;HPM_P1;HPM_P2
2022/04/23 00:02:00;;;;;;;3.67;2.25;;;9.40;99.90;;;;;;5032058;28;20017;-72
2022/04/23 00:04:28;;;;;;;10.70;4.10;;;9.40;99.90;;;;;;5032364;28;20527;-72
2022/04/23 00:06:54;;;;;;;4.93;2.00;;;9.40;99.90;;;;;;5031995;28;20547;-72
2022/04/23 00:09:20;;;;;;;0.20;0.20;;;9.30;99.90;;;;;;5014571;28;20057;-72
2022/04/23 00:11:46;;;;;;;4.32;2.50;;;9.40;99.90;;;;;;5014218;28;20478;-73
2022/04/23 00:14:11;;;;;;;2.70;1.50;;;9.40;99.90;;;;;;5014273;28;20030;-73
2022/04/23 00:16:37;;;;;;;1.13;0.82;;;9.30;99.90;;;;;;5032652;28;20109;-72
2022/04/23 00:19:03;;;;;;;1.13;1.08;;;9.20;99.90;;;;;;5051748;28;20045;-73
2022/04/23 00:21:29;;;;;;;2.95;2.63;;;9.30;99.90;;;;;;5052083;28;20440;-73
2022/04/23 00:23:54;;;;;;;2.08;1.48;;;9.30;99.90;;;;;;5036362;28;20078;-73
2022/04/23 00:26:20;;;;;;;0.38;0.38;;;9.30;99.90;;;;;;5055846;28;20028;-73
2022/04/23 00:28:46;;;;;;;8.65;7.78;;;9.30;99.90;;;;;;5038283;28;20025;-72
2022/04/23 00:31:13;;;;;;;2.55;1.27;;;9.20;99.90;;;;;;5055806;28;20025;-73
2022/04/23 00:33:40;;;;;;;6.70;1.55;;;9.20;99.90;;;;;;5055665;28;20031;-72
2022/04/23 00:36:10;;;;;;;0.20;0.20;;;9.00;99.90;;;;;;5037778;28;20078;-72
2022/04/23 00:38:40;;;;;;;0.80;0.80;;;9.10;99.90;;;;;;5055577;28;20025;-73
2022/04/23 00:41:08;;;;;;;1.95;1.85;;;9.10;99.90;;;;;;5037742;28;20450;-73
2022/04/23 00:43:34;;;;;;;1.23;0.73;;;9.10;99.90;;;;;;5037733;28;20021;-73
2022/04/23 00:46:01;;;;;;;0.20;0.20;;;9.10;99.90;;;;;;5055401;28;20514;-73
2022/04/23 00:48:28;;;;;;;0.22;0.22;;;9.10;99.90;;;;;;5055851;28;20025;-73
2022/04/23 00:50:58;;;;;;;0.25;0.25;;;9.20;99.90;;;;;;5055358;28;20037;-73
2022/04/23 00:53:24;;;;;;;0.20;0.20;;;9.10;99.90;;;;;;5055298;28;20029;-73
2022/04/23 00:55:54;;;;;;;1.55;1.45;;;9.20;99.90;;;;;;5055249;28;20107;-73
2022/04/23 00:58:20;;;;;;;1.75;1.50;;;9.30;99.90;;;;;;5055414;28;20013;-73
2022/04/23 01:00:47;;;;;;;13.25;2.95;;;9.30;99.90;;;;;;5055301;28;20415;-73
2022/04/23 01:03:14;;;;;;;4.93;1.52;;;9.00;99.90;;;;;;5037318;28;20021;-73
2022/04/23 01:05:46;;;;;;;0.20;0.20;;;8.90;99.90;;;;;;5054879;28;20029;-73
2022/04/23 01:08:17;;;;;;;2.35;1.30;;;8.90;99.90;;;;;;5055172;28;20029;-73
2022/04/23 01:10:48;;;;;;;3.28;0.88;;;9.00;99.90;;;;;;5055161;28;20104;-73
2022/04/23 01:13:14;;;;;;;0.70;0.70;;;9.00;99.90;;;;;;5055125;28;20021;-73
2022/04/23 01:16:16;;;;;;;8.80;2.75;;;9.10;99.90;;;;;;5054967;28;20082;-73
2022/04/23 01:18:42;;;;;;;2.17;1.33;;;9.10;99.90;;;;;;4977103;28;20022;-73
2022/04/23 01:21:13;;;;;;;0.40;0.40;;;9.10;99.90;;;;;;5025234;28;20037;-73
2022/04/23 01:23:41;;;;;;;0.20;0.20;;;9.10;99.90;;;;;;5054930;28;20049;-73
2022/04/23 01:26:08;;;;;;;0.43;0.43;;;9.10;99.90;;;;;;5054617;28;20336;-73
2022/04/23 01:28:35;;;;;;;1.55;1.45;;;9.10;99.90;;;;;;5054807;28;20040;-73
2022/04/23 01:31:03;;;;;;;0.10;0.10;;;9.10;99.90;;;;;;5054719;28;20032;-73
2022/04/23 01:33:29;;;;;;;0.75;0.75;;;9.10;99.90;;;;;;5054563;28;20025;-73
2022/04/23 01:35:55;;;;;;;1.60;1.45;;;9.10;99.90;;;;;;5053627;28;20150;-73
2022/04/23 01:38:20;;;;;;;0.20;0.20;;;9.10;99.90;;;;;;5054804;28;20528;-73
2022/04/23 01:40:46;;;;;;;6.80;1.05;;;9.20;99.90;;;;;;5054661;28;20021;-73
2022/04/23 01:43:12;;;;;;;0.20;0.20;;;9.10;99.90;;;;;;5036629;28;20087;-73
2022/04/23 01:45:38;;;;;;;12.73;5.35;;;9.00;99.90;;;;;;5054195;28;20036;-73
2022/04/23 01:48:04;;;;;;;0.80;0.80;;;9.10;99.90;;;;;;5036641;28;20531;-73
2022/04/23 01:50:30;;;;;;;0.50;0.50;;;8.90;99.90;;;;;;5054073;28;20045;-73
2022/04/23 01:52:56;;;;;;;2.20;0.73;;;9.00;99.90;;;;;;5054141;28;20025;-73
2022/04/23 01:55:22;;;;;;;8.80;3.08;;;9.00;99.90;;;;;;5054253;28;20535;-73
2022/04/23 01:57:47;;;;;;;1.67;1.55;;;9.00;99.90;;;;;;5054036;28;20104;-73
2022/04/23 02:00:14;;;;;;;1.85;1.75;;;8.90;99.90;;;;;;5054597;28;20025;-73
2022/04/23 02:02:43;;;;;;;4.47;3.40;;;8.90;99.90;;;;;;5054146;28;20032;-73
2022/04/23 02:05:10;;;;;;;0.20;0.20;;;8.70;99.90;;;;;;5053922;28;20055;-73
2022/04/23 02:07:37;;;;;;;3.40;2.20;;;8.70;99.90;;;;;;5053882;28;20029;-73
2022/04/23 02:10:07;;;;;;;0.22;0.22;;;8.80;99.90;;;;;;5054012;28;20036;-73
2022/04/23 02:12:33;;;;;;;0.45;0.45;;;8.70;99.90;;;;;;5053940;28;20051;-73
2022/04/23 02:15:00;;;;;;;0.30;0.30;;;8.60;99.90;;;;;;5053930;28;20025;-73
2022/04/23 02:17:40;;;;;;;0.40;0.40;;;8.60;99.90;;;;;;5053644;28;20020;-73
2022/04/23 02:20:12;;;;;;;0.90;0.90;;;8.60;99.90;;;;;;5053914;28;20104;-73
2022/04/23 02:22:38;;;;;;;3.33;1.85;;;8.50;99.90;;;;;;5053803;28;20061;-73
2022/04/23 02:25:05;;;;;;;0.28;0.28;;;8.40;99.90;;;;;;5053853;28;20389;-73
2022/04/23 02:27:48;;;;;;;2.70;2.50;;;8.50;99.90;;;;;;5053502;28;20025;-73
2022/04/23 02:30:16;;;;;;;0.30;0.30;;;8.50;99.90;;;;;;5053534;28;20076;-73
2022/04/23 02:32:42;;;;;;;0.30;0.30;;;8.70;99.90;;;;;;5053586;28;20029;-73
2022/04/23 02:35:12;;;;;;;1.52;1.17;;;8.70;99.90;;;;;;5053556;28;20083;-73
2022/04/23 02:37:40;;;;;;;0.30;0.30;;;8.80;99.90;;;;;;5053416;28;20488;-73
2022/04/23 02:40:09;;;;;;;7.00;2.38;;;8.80;99.90;;;;;;5053478;28;20082;-73
2022/04/23 02:42:39;;;;;;;1.00;0.93;;;8.90;99.90;;;;;;5035520;28;20035;-73
2022/04/23 02:45:07;;;;;;;0.43;0.43;;;8.70;99.90;;;;;;5035540;28;20507;-73
2022/04/23 02:47:52;;;;;;;2.63;0.63;;;8.70;99.90;;;;;;5052929;28;20434;-73
2022/04/23 02:50:26;;;;;;;0.55;0.55;;;8.70;99.90;;;;;;5053023;28;20047;-73
2022/04/23 02:52:52;;;;;;;0.55;0.55;;;8.70;99.90;;;;;;5052921;28;20053;-73
2022/04/23 02:55:18;;;;;;;0.20;0.20;;;8.60;99.90;;;;;;5053164;28;20057;-73
2022/04/23 02:57:43;;;;;;;1.60;1.50;;;8.60;99.90;;;;;;5052973;28;20052;-73
2022/04/23 03:00:11;;;;;;;0.13;0.13;;;8.70;99.90;;;;;;5053068;28;20025;-73
2022/04/23 03:02:38;;;;;;;5.25;3.83;;;8.70;99.90;;;;;;5053043;28;20104;-73
2022/04/23 03:05:10;;;;;;;0.20;0.20;;;8.70;99.90;;;;;;5052893;28;20152;-73
2022/04/23 03:07:37;;;;;;;4.80;1.80;;;8.60;99.90;;;;;;5052585;28;20048;-73
2022/04/23 03:10:04;;;;;;;0.20;0.20;;;8.50;99.90;;;;;;5052775;28;20021;-73
2022/04/23 03:12:30;;;;;;;1.42;1.38;;;8.50;99.90;;;;;;5052766;28;20098;-73
2022/04/23 03:14:56;;;;;;;0.35;0.35;;;8.30;99.90;;;;;;5053107;28;20539;-73
2022/04/23 03:17:22;;;;;;;0.60;0.55;;;8.40;99.90;;;;;;5052483;28;20025;-73
2022/04/23 03:19:48;;;;;;;5.35;2.40;;;8.50;99.90;;;;;;5052618;28;20029;-73
2022/04/23 03:22:17;;;;;;;0.35;0.35;;;8.30;99.90;;;;;;5052566;28;20025;-73
2022/04/23 03:24:44;;;;;;;0.32;0.32;;;8.30;99.90;;;;;;5052579;28;20028;-73
2022/04/23 03:27:10;;;;;;;0.10;0.10;;;8.20;99.90;;;;;;5052358;28;20064;-73
2022/04/23 03:29:36;;;;;;;2.65;0.95;;;8.30;99.90;;;;;;5052367;28;20052;-73
2022/04/23 03:32:02;;;;;;;0.32;0.32;;;8.30;99.90;;;;;;5052372;28;20485;-73
2022/04/23 03:34:27;;;;;;;1.38;1.27;;;8.40;99.90;;;;;;5052317;28;20112;-73
2022/04/23 03:36:56;;;;;;;0.22;0.22;;;8.40;99.90;;;;;;5052056;28;20025;-73
2022/04/23 03:39:22;;;;;;;0.13;0.13;;;8.40;99.90;;;;;;5052402;28;20017;-73
2022/04/23 03:41:48;;;;;;;0.13;0.13;;;8.50;99.90;;;;;;5052269;28;20032;-73
2022/04/23 03:44:13;;;;;;;0.10;0.10;;;8.50;99.90;;;;;;5052280;28;20032;-73
2022/04/23 03:46:39;;;;;;;0.73;0.43;;;8.60;99.90;;;;;;5051993;28;20032;-73
2022/04/23 03:49:05;;;;;;;1.05;1.00;;;8.50;99.90;;;;;;5052095;28;20094;-73
2022/04/23 03:51:31;;;;;;;1.90;1.80;;;8.40;99.90;;;;;;5052233;28;20062;-73
2022/04/23 03:53:56;;;;;;;0.38;0.38;;;8.30;99.90;;;;;;5052102;28;20377;-73
2022/04/23 03:56:22;;;;;;;1.23;1.23;;;8.30;99.90;;;;;;5051837;28;20088;-73
2022/04/23 03:58:48;;;;;;;0.40;0.40;;;8.20;99.90;;;;;;5033642;28;20029;-73
2022/04/23 04:01:14;;;;;;;0.17;0.17;;;8.10;99.90;;;;;;5052009;28;20025;-73
2022/04/23 04:03:40;;;;;;;0.45;0.45;;;8.10;99.90;;;;;;5017792;28;20391;-73
2022/04/23 04:06:06;;;;;;;1.35;0.82;;;8.00;99.90;;;;;;5051802;28;20059;-74
2022/04/23 04:08:32;;;;;;;6.07;1.77;;;8.00;99.90;;;;;;5052087;28;20029;-74
2022/04/23 04:10:57;;;;;;;0.13;0.13;;;8.10;99.90;;;;;;5052019;28;20099;-74
2022/04/23 04:13:23;;;;;;;0.90;0.90;;;8.20;99.90;;;;;;5051803;28;20032;-74
2022/04/23 04:15:50;;;;;;;0.65;0.45;;;8.30;99.90;;;;;;5051667;28;20495;-73
2022/04/23 04:18:16;;;;;;;0.10;0.10;;;8.40;99.90;;;;;;5051737;28;20376;-74
2022/04/23 04:20:42;;;;;;;0.98;0.90;;;8.40;99.90;;;;;;5034139;28;20025;-74
2022/04/23 04:23:08;;;;;;;13.95;5.68;;;8.30;99.90;;;;;;5051753;28;20079;-74
2022/04/23 04:25:35;;;;;;;0.10;0.10;;;8.20;99.90;;;;;;5051587;28;20025;-73
2022/04/23 04:28:01;;;;;;;0.10;0.10;;;8.10;99.90;;;;;;5051847;28;20542;-74
2022/04/23 04:31:46;;;;;;;0.30;0.30;;;8.20;99.90;;;;;;5051789;28;20025;-71
2022/04/23 04:33:13;;;;;;;0.80;0.80;;;8.10;99.90;;;;;;5051418;28;20433;-71
2022/04/23 04:35:39;;;;;;;1.25;0.30;;;8.10;99.90;;;;;;5033622;28;20112;-71
2022/04/23 04:38:05;;;;;;;0.30;0.30;;;8.00;99.90;;;;;;5051754;28;20044;-72
2022/04/23 04:40:31;;;;;;;0.20;0.20;;;8.00;99.90;;;;;;5051666;28;20376;-71
2022/04/23 04:42:56;;;;;;;3.28;1.50;;;8.00;99.90;;;;;;5051716;28;20032;-72
2022/04/23 04:45:22;;;;;;;0.45;0.45;;;8.00;99.90;;;;;;5051571;28;20517;-72
2022/04/23 04:47:48;;;;;;;0.13;0.13;;;8.00;99.90;;;;;;5051405;28;20029;-72
2022/04/23 04:50:13;;;;;;;2.03;1.83;;;8.20;99.90;;;;;;5051478;28;20572;-72
2022/04/23 04:52:40;;;;;;;3.42;1.10;;;8.30;99.90;;;;;;5051452;28;20040;-72
2022/04/23 04:55:06;;;;;;;6.75;1.13;;;8.30;99.90;;;;;;5051546;28;20013;-72
2022/04/23 04:57:32;;;;;;;1.67;1.27;;;8.20;99.90;;;;;;5051198;28;20021;-71
2022/04/23 04:59:58;;;;;;;0.10;0.10;;;8.10;99.90;;;;;;5051468;28;20028;-72
2022/04/23 05:02:23;;;;;;;2.55;1.73;;;8.20;99.90;;;;;;5033552;28;20029;-72
2022/04/23 05:04:49;;;;;;;0.25;0.25;;;8.20;99.90;;;;;;5051491;28;20036;-72
2022/04/23 05:07:15;;;;;;;2.20;1.55;;;8.20;99.90;;;;;;5051224;28;20047;-72
2022/04/23 05:09:40;;;;;;;5.95;3.67;;;8.20;99.90;;;;;;5051634;28;20059;-71
2022/04/23 05:12:07;;;;;;;1.35;0.50;;;8.20;99.90;;;;;;5055065;28;20036;-72
2022/04/23 05:14:32;;;;;;;0.43;0.43;;;8.20;99.90;;;;;;5055034;28;20507;-72
2022/04/23 05:16:58;;;;;;;2.35;2.17;;;8.30;99.90;;;;;;5054661;28;20017;-72
2022/04/23 05:19:24;;;;;;;0.47;0.47;;;8.20;99.90;;;;;;5055025;28;20052;-71
2022/04/23 05:21:50;;;;;;;0.47;0.43;;;8.10;99.90;;;;;;5055212;28;20096;-71
2022/04/23 05:24:16;;;;;;;1.23;0.88;;;8.00;99.90;;;;;;5054873;28;20393;-72
2022/04/23 05:26:41;;;;;;;0.50;0.50;;;8.00;99.90;;;;;;5054554;28;20025;-72
2022/04/23 05:29:07;;;;;;;1.33;1.23;;;8.00;99.90;;;;;;5054757;28;20360;-72
2022/04/23 05:31:33;;;;;;;5.70;5.25;;;7.90;99.90;;;;;;5054695;28;20028;-71
2022/04/23 05:33:59;;;;;;;3.20;2.65;;;8.00;99.90;;;;;;5054599;28;20366;-72
2022/04/23 05:36:25;;;;;;;2.63;1.58;;;8.00;99.90;;;;;;5054335;28;20022;-71
2022/04/23 05:38:50;;;;;;;0.17;0.17;;;7.90;99.90;;;;;;5054557;28;20031;-71
2022/04/23 05:41:16;;;;;;;1.40;1.00;;;7.90;99.90;;;;;;5036720;28;20029;-71
2022/04/23 05:43:42;;;;;;;0.40;0.40;;;7.80;99.90;;;;;;5054462;28;20033;-72
2022/04/23 05:46:08;;;;;;;1.80;1.42;;;8.00;99.90;;;;;;5054094;28;20362;-72
2022/04/23 05:48:37;;;;;;;2.75;2.05;;;8.00;99.90;;;;;;5054456;28;20056;-72
2022/04/23 05:51:02;;;;;;;0.30;0.30;;;8.00;99.90;;;;;;5054307;28;20033;-71
2022/04/23 05:53:28;;;;;;;0.10;0.10;;;8.00;99.90;;;;;;5054259;28;20090;-72
2022/04/23 05:55:56;;;;;;;0.93;0.85;;;8.00;99.90;;;;;;5036216;28;20025;-72
2022/04/23 05:58:22;;;;;;;1.17;0.80;;;8.00;99.90;;;;;;5054175;28;20078;-72
2022/04/23 06:00:50;;;;;;;4.03;2.58;;;8.00;99.90;;;;;;5054085;28;20120;-73
2022/04/23 06:03:16;;;;;;;3.75;2.80;;;8.10;99.90;;;;;;5019652;28;20095;-73
2022/04/23 06:05:41;;;;;;;3.92;1.85;;;8.20;99.90;;;;;;5053850;28;20029;-73
2022/04/23 06:08:07;;;;;;;4.55;2.97;;;8.30;99.90;;;;;;5054071;28;20040;-72
2022/04/23 06:10:33;;;;;;;0.38;0.38;;;8.00;99.90;;;;;;5054134;28;20029;-72
2022/04/23 06:12:59;;;;;;;5.35;2.13;;;8.00;99.90;;;;;;5053816;28;20377;-72
2022/04/23 06:15:24;;;;;;;4.55;1.23;;;8.00;99.90;;;;;;5053859;28;20028;-70
2022/04/23 06:17:50;;;;;;;0.10;0.10;;;7.90;99.90;;;;;;5053653;28;20052;-70
2022/04/23 06:20:16;;;;;;;4.13;2.08;;;7.80;99.90;;;;;;5053649;28;20017;-69
2022/04/23 06:22:42;;;;;;;5.07;1.75;;;7.80;99.90;;;;;;5053486;28;20029;-69
2022/04/23 06:25:08;;;;;;;1.55;1.45;;;7.70;99.90;;;;;;5053646;28;20420;-69
2022/04/23 06:27:34;;;;;;;0.10;0.10;;;7.70;99.90;;;;;;5053385;28;20108;-69
2022/04/23 06:29:59;;;;;;;2.47;1.38;;;7.70;99.90;;;;;;5053580;28;20063;-69
2022/04/23 06:32:25;;;;;;;0.10;0.10;;;7.80;99.90;;;;;;5053629;28;20029;-68
2022/04/23 06:34:51;;;;;;;3.55;2.70;;;7.80;99.90;;;;;;5053570;28;20024;-68
2022/04/23 06:37:20;;;;;;;3.22;1.98;;;7.70;99.90;;;;;;5053224;28;20492;-69
2022/04/23 06:39:45;;;;;;;3.75;1.58;;;7.70;99.90;;;;;;5053231;28;20025;-68
2022/04/23 06:42:11;;;;;;;1.73;1.38;;;7.70;99.90;;;;;;5053367;28;20126;-74
2022/04/23 06:44:37;;;;;;;0.00;0.00;;;7.70;99.90;;;;;;5053384;28;20017;-72
2022/04/23 06:47:03;;;;;;;1.83;0.98;;;7.80;99.90;;;;;;5053062;28;20383;-72
2022/04/23 06:49:30;;;;;;;1.25;0.47;;;7.90;99.90;;;;;;5053171;28;20025;-72
2022/04/23 06:51:56;;;;;;;0.20;0.20;;;8.00;99.90;;;;;;5053141;28;20025;-72
2022/04/23 06:54:23;;;;;;;1.58;1.48;;;8.10;99.90;;;;;;5035440;28;20086;-72
2022/04/23 06:56:49;;;;;;;4.82;1.92;;;8.10;99.90;;;;;;5034987;28;20025;-75
2022/04/23 06:59:14;;;;;;;0.60;0.60;;;8.20;99.90;;;;;;5053117;28;20027;-74
2022/04/23 07:01:40;;;;;;;2.17;1.27;;;8.30;99.90;;;;;;5052945;28;20105;-74
2022/04/23 07:04:11;;;;;;;1.33;1.23;;;8.20;99.90;;;;;;5035116;28;20362;-73
2022/04/23 07:06:37;;;;;;;0.22;0.22;;;8.30;99.90;;;;;;5052679;28;20033;-73
2022/04/23 07:09:03;;;;;;;4.95;1.65;;;8.30;99.90;;;;;;5034988;28;20393;-73
2022/04/23 07:11:29;;;;;;;1.15;0.82;;;8.20;99.90;;;;;;5052736;28;20021;-73
2022/04/23 07:13:56;;;;;;;2.38;2.03;;;8.30;99.90;;;;;;5034605;28;20054;-72
2022/04/23 07:16:21;;;;;;;0.40;0.40;;;8.30;99.90;;;;;;5034471;28;20028;-73
2022/04/23 07:18:47;;;;;;;11.55;3.40;;;8.30;99.90;;;;;;5052403;28;20158;-73
2022/04/23 07:21:13;;;;;;;0.60;0.60;;;8.30;99.90;;;;;;5052488;28;20021;-72
2022/04/23 07:26:23;;;;;;;1.58;0.63;;;8.20;99.90;;;;;;5052169;28;20033;-73
2022/04/23 07:28:49;;;;;;;3.20;2.90;;;8.20;99.90;;;;;;5052280;28;20041;-73
2022/04/23 07:31:15;;;;;;;2.63;1.67;;;8.20;99.90;;;;;;5052325;28;20024;-73
2022/04/23 07:39:09;;;;;;;1.95;0.60;;;8.40;99.90;;;;;;5052434;28;20112;-73
2022/04/23 07:41:34;;;;;;;2.83;1.75;;;8.40;99.90;;;;;;5034340;28;20060;-73
2022/04/23 07:44:00;;;;;;;1.20;0.75;;;8.50;99.90;;;;;;5052309;28;20032;-73
2022/04/23 07:46:26;;;;;;;8.65;4.57;;;8.30;99.90;;;;;;5052131;28;20104;-73
2022/04/23 07:48:51;;;;;;;0.10;0.10;;;8.20;99.90;;;;;;5052301;28;20369;-74
2022/04/23 07:51:18;;;;;;;9.60;2.90;;;8.20;99.90;;;;;;5052125;28;20085;-72
2022/04/23 07:53:44;;;;;;;9.88;4.55;;;8.10;99.90;;;;;;5047010;28;20029;-73
2022/04/23 07:56:10;;;;;;;1.90;1.73;;;8.10;99.90;;;;;;5040232;28;20021;-73
2022/04/23 07:58:36;;;;;;;0.52;0.52;;;8.20;99.90;;;;;;5041240;28;20109;-73
2022/04/23 08:01:02;;;;;;;0.10;0.10;;;8.20;99.90;;;;;;5014659;28;20153;-73
2022/04/23 08:03:28;;;;;;;4.72;1.02;;;8.30;99.90;;;;;;5030016;28;20029;-72
2022/04/23 08:05:54;;;;;;;1.63;0.55;;;8.40;99.90;;;;;;5033960;28;20039;-73
2022/04/23 08:08:21;;;;;;;1.23;1.00;;;8.50;99.90;;;;;;5051836;28;20104;-73
2022/04/23 08:10:47;;;;;;;0.77;0.77;;;8.40;99.90;;;;;;5051899;28;20500;-73
2022/04/23 08:13:13;;;;;;;2.80;1.73;;;8.40;99.90;;;;;;5048784;28;20034;-73
2022/04/23 08:15:39;;;;;;;4.03;1.13;;;8.50;99.90;;;;;;5031672;28;20032;-73
2022/04/23 08:18:06;;;;;;;1.77;1.17;;;8.60;99.90;;;;;;5032007;28;20470;-73
2022/04/23 08:20:32;;;;;;;0.28;0.28;;;8.60;99.90;;;;;;5032035;28;20025;-73
2022/04/23 08:22:58;;;;;;;1.35;1.25;;;8.60;99.90;;;;;;5038314;28;20039;-73
2022/04/23 08:25:23;;;;;;;7.50;3.10;;;8.80;99.90;;;;;;5051737;28;20035;-73
2022/04/23 08:27:54;;;;;;;7.03;0.85;;;8.70;99.90;;;;;;5041539;28;20025;-71
2022/04/23 08:30:36;;;;;;;0.10;0.10;;;8.70;99.90;;;;;;5051031;28;20174;-71
2022/04/23 08:33:05;;;;;;;0.63;0.47;;;8.70;99.90;;;;;;5031771;28;20117;-71
2022/04/23 08:35:32;;;;;;;1.52;1.42;;;8.80;99.90;;;;;;5013924;28;20060;-71
2022/04/23 08:37:59;;;;;;;0.20;0.20;;;8.90;99.90;;;;;;5030990;28;20392;-70
2022/04/23 08:40:26;;;;;;;0.10;0.10;;;8.90;99.90;;;;;;5031723;28;20424;-71
2022/04/23 08:42:51;;;;;;;0.68;0.68;;;8.90;99.90;;;;;;5031412;28;20108;-71
2022/04/23 08:45:18;;;;;;;0.52;0.52;;;9.00;99.90;;;;;;5034462;28;20064;-71
2022/04/23 08:47:45;;;;;;;5.57;1.45;;;9.20;99.90;;;;;;5036243;28;20025;-71
2022/04/23 08:50:11;;;;;;;0.75;0.75;;;9.10;99.90;;;;;;5053277;28;20048;-72
2022/04/23 08:52:42;;;;;;;1.23;1.13;;;9.10;99.90;;;;;;5053419;28;20067;-73
2022/04/23 08:55:08;;;;;;;2.65;1.95;;;9.10;99.90;;;;;;5053422;28;20020;-73
2022/04/23 08:57:36;;;;;;;10.50;6.15;;;9.10;99.90;;;;;;5021516;28;20450;-72
2022/04/23 09:00:08;;;;;;;9.25;2.78;;;9.10;99.90;;;;;;5033473;28;20025;-72
2022/04/23 09:02:37;;;;;;;0.20;0.20;;;9.10;99.90;;;;;;5035242;28;20053;-73
2022/04/23 09:05:04;;;;;;;0.80;0.80;;;9.20;99.90;;;;;;5035704;28;20029;-72
2022/04/23 09:07:30;;;;;;;0.95;0.95;;;9.10;99.90;;;;;;5016761;28;20561;-73
2022/04/23 09:09:58;;;;;;;10.38;4.47;;;9.20;99.90;;;;;;5034333;28;20100;-73
2022/04/23 09:12:26;;;;;;;3.22;2.92;;;9.10;99.90;;;;;;5016755;28;20068;-73
2022/04/23 09:23:43;;;;;;;3.30;1.48;;;9.20;99.90;;;;;;5015155;28;20022;-73
2022/04/23 09:26:21;;;;;;;3.20;2.33;;;9.40;99.90;;;;;;5014760;28;20117;-72
2022/04/23 09:28:48;;;;;;;2.38;1.15;;;9.40;99.90;;;;;;5015077;28;20030;-72
2022/04/23 09:31:15;;;;;;;2.15;1.95;;;9.40;99.90;;;;;;5014991;28;20076;-73
2022/04/23 09:33:52;;;;;;;3.10;2.10;;;9.50;99.90;;;;;;4997432;28;20061;-73
2022/04/23 09:36:19;;;;;;;2.17;1.17;;;9.50;99.90;;;;;;5014849;28;20585;-72
2022/04/23 09:39:00;;;;;;;0.75;0.75;;;9.50;99.90;;;;;;5015009;28;20025;-72
2022/04/23 09:41:33;;;;;;;7.35;3.53;;;9.70;99.90;;;;;;5014977;28;20068;-72
2022/04/23 09:44:12;;;;;;;0.30;0.30;;;9.50;99.90;;;;;;5014728;28;20039;-72
2022/04/23 09:46:49;;;;;;;6.20;2.63;;;9.50;99.90;;;;;;5014670;28;20033;-73
2022/04/23 09:49:21;;;;;;;7.85;4.35;;;9.60;99.90;;;;;;4997128;28;20034;-72
2022/04/23 09:52:00;;;;;;;;;;;9.60;99.90;;;;;;5015134;28;20029;-73
2022/04/23 09:54:27;;;;;;;0.93;0.93;;;9.60;99.90;;;;;;5013415;28;19913;-74
2022/04/23 09:56:53;;;;;;;1.92;1.83;;;9.70;99.90;;;;;;5013403;28;20018;-74
2022/04/23 09:59:19;;;;;;;0.20;0.20;;;9.70;99.90;;;;;;5014466;28;20096;-73
2022/04/23 10:01:47;;;;;;;10.65;3.72;;;9.80;99.90;;;;;;5014461;28;20101;-74
2022/04/23 10:04:15;;;;;;;0.60;0.60;;;9.80;99.90;;;;;;5014477;28;20157;-74
2022/04/23 10:06:43;;;;;;;0.63;0.63;;;9.90;99.90;;;;;;5014123;28;20490;-73
2022/04/23 10:09:10;;;;;;;8.60;3.83;;;10.00;99.90;;;;;;5014265;28;20033;-74
2022/04/23 10:11:41;;;;;;;5.70;3.47;;;10.00;99.90;;;;;;5014235;28;20500;-74
2022/04/23 10:14:10;;;;;;;0.80;0.80;;;10.00;99.90;;;;;;5038772;28;20080;-74
2022/04/23 10:16:38;;;;;;;5.65;2.28;;;10.20;99.90;;;;;;5048885;28;20028;-73
2022/04/23 10:19:04;;;;;;;0.45;0.45;;;10.20;99.90;;;;;;5033894;28;20032;-73
2022/04/23 10:21:53;;;;;;;6.70;2.30;;;10.20;99.90;;;;;;5043387;28;20033;-72
2022/04/23 10:24:25;;;;;;;1.58;1.48;;;10.10;99.90;;;;;;5053906;28;20499;-72
2022/04/23 10:26:54;;;;;;;1.73;1.50;;;10.10;99.90;;;;;;5029015;28;20028;-72
2022/04/23 10:29:23;;;;;;;6.22;2.65;;;10.30;99.90;;;;;;5053486;28;20028;-73
2022/04/23 10:32:10;;;;;;;4.72;1.48;;;10.40;99.90;;;;;;5035750;28;20111;-72
2022/04/23 10:34:37;;;;;;;0.35;0.35;;;10.50;99.90;;;;;;5053485;28;20108;-72
2022/04/23 10:37:13;;;;;;;5.45;1.85;;;10.50;99.90;;;;;;5053221;28;20028;-72
2022/04/23 10:39:39;;;;;;;0.63;0.63;;;10.60;99.90;;;;;;5035474;28;20071;-72
2022/04/23 10:42:06;;;;;;;0.98;0.50;;;10.60;99.90;;;;;;5053305;28;20436;-72
2022/04/23 10:44:31;;;;;;;0.80;0.80;;;10.70;99.90;;;;;;5052195;28;20029;-73
2022/04/23 10:46:58;;;;;;;0.93;0.93;;;10.60;99.90;;;;;;5035175;28;20021;-72
2022/04/23 10:49:25;;;;;;;0.10;0.10;;;10.60;99.90;;;;;;5053145;28;20029;-72
2022/04/23 10:51:52;;;;;;;4.60;2.97;;;10.70;99.90;;;;;;5124371;22;20041;-70
2022/04/23 10:54:22;;;;;;;0.30;0.30;;;10.80;99.90;;;;;;5052826;28;20402;-70
2022/04/23 10:56:55;;;;;;;2.38;1.83;;;10.80;99.90;;;;;;5052938;28;20518;-71
2022/04/23 10:59:39;;;;;;;1.80;1.70;;;10.80;99.90;;;;;;5035459;28;20135;-70
2022/04/23 11:02:28;;;;;;;2.83;1.30;;;10.80;99.90;;;;;;5053000;28;20025;-70
2022/04/23 11:12:14;;;;;;;2.58;2.35;;;10.60;99.90;;;;;;5035416;28;20036;-70
2022/04/23 11:13:23;;;;;;;;;;;11.00;99.90;;;;;;5018755;28;20115;-71
2022/04/23 11:16:07;;;;;;;1.08;0.98;;;11.10;99.90;;;;;;5034833;28;20291;-71
2022/04/23 11:18:34;;;;;;;4.25;3.92;;;11.30;99.90;;;;;;5052765;28;20029;-71
2022/04/23 11:21:29;;;;;;;2.15;1.40;;;11.50;99.90;;;;;;5052635;28;20029;-71
2022/04/23 11:23:57;;;;;;;10.25;5.35;;;11.70;99.90;;;;;;5050900;28;20075;-70
2022/04/23 11:26:40;;;;;;;5.63;3.88;;;11.90;99.90;;;;;;5052483;28;20021;-70
2022/04/23 11:29:06;;;;;;;1.27;1.00;;;12.10;99.90;;;;;;5052474;28;20024;-71
2022/04/23 11:31:31;;;;;;;2.28;1.75;;;12.10;99.90;;;;;;5052433;28;20028;-71
2022/04/23 11:33:59;;;;;;;1.50;1.40;;;12.20;99.90;;;;;;5052225;28;20021;-70
2022/04/23 11:36:26;;;;;;;7.38;3.28;;;12.20;99.90;;;;;;5052249;28;20419;-70
2022/04/23 11:38:52;;;;;;;4.70;1.90;;;12.10;99.90;;;;;;5034411;28;20047;-71
2022/04/23 11:41:41;;;;;;;26.20;5.07;;;12.10;99.90;;;;;;5034344;28;20032;-70
2022/04/23 11:44:45;;;;;;;8.80;4.68;;;12.20;99.90;;;;;;5034345;28;20025;-70
2022/04/23 11:47:08;;;;;;;1.13;0.63;;;12.20;99.90;;;;;;5051953;28;20054;-70
2022/04/23 11:49:34;;;;;;;0.20;0.20;;;12.20;99.90;;;;;;5034440;28;20446;-71
2022/04/23 11:52:07;;;;;;;2.47;2.25;;;12.40;99.90;;;;;;5034366;28;20032;-70
2022/04/23 11:54:37;;;;;;;6.72;3.90;;;12.50;99.90;;;;;;5052050;28;20472;-71
2022/04/23 11:57:05;;;;;;;1.65;1.10;;;12.40;99.90;;;;;;5033815;28;20603;-70
2022/04/23 11:59:43;;;;;;;1.38;1.13;;;12.30;99.90;;;;;;5052241;28;20096;-71
2022/04/23 12:02:23;;;;;;;0.45;0.45;;;12.30;99.90;;;;;;5051961;28;20021;-70
2022/04/23 12:05:01;;;;;;;2.35;1.50;;;12.30;99.90;;;;;;5052013;28;20025;-70
2022/04/23 12:07:30;;;;;;;1.20;0.88;;;12.20;99.90;;;;;;5051857;28;20071;-70
2022/04/23 12:10:00;;;;;;;4.40;2.85;;;12.10;99.90;;;;;;5017526;28;20031;-70
2022/04/23 12:12:32;;;;;;;2.10;1.90;;;12.00;99.90;;;;;;5051787;28;20037;-70
2022/04/23 12:14:59;;;;;;;6.32;3.97;;;12.10;99.90;;;;;;5033998;28;20021;-70
2022/04/23 12:17:29;;;;;;;2.72;1.95;;;12.20;99.90;;;;;;5051705;28;20117;-70
2022/04/23 12:20:09;;;;;;;1.30;0.85;;;12.30;99.90;;;;;;5056586;28;20021;-71
2022/04/23 12:22:35;;;;;;;3.40;3.10;;;12.40;99.90;;;;;;5058631;28;20027;-70
2022/04/23 12:25:10;;;;;;;5.57;3.13;;;12.50;99.90;;;;;;5058420;28;20100;-70
2022/04/23 12:27:54;;;;;;;2.47;1.85;;;12.60;99.90;;;;;;5058634;28;20028;-70
2022/04/23 12:42:04;;;;;;;0.55;0.55;;;12.90;99.90;;;;;;5059576;28;20051;-74
2022/04/23 12:44:42;;;;;;;0.90;0.88;;;13.10;99.90;;;;;;5058613;28;20040;-72
2022/04/23 12:47:12;;;;;;;7.93;3.78;;;13.20;99.90;;;;;;5058119;28;20021;-72
2022/04/23 12:49:52;;;;;;;3.83;1.55;;;13.50;99.90;;;;;;5040710;28;20472;-72
2022/04/23 12:52:21;;;;;;;1.63;1.02;;;13.60;99.90;;;;;;5058197;28;20055;-72
2022/04/23 12:55:12;;;;;;;1.58;1.38;;;13.50;99.90;;;;;;5024262;28;20032;-72
2022/04/23 12:57:40;;;;;;;3.83;2.33;;;13.40;99.90;;;;;;5058106;28;20096;-72
2022/04/23 13:00:06;;;;;;;6.53;3.70;;;13.60;99.90;;;;;;5058298;28;20021;-72
2022/04/23 13:02:36;;;;;;;0.52;0.52;;;13.80;99.90;;;;;;5058328;28;20357;-72
2022/04/23 13:05:08;;;;;;;7.68;3.92;;;13.90;99.90;;;;;;5023785;28;20021;-72
2022/04/23 13:10:18;;;;;;;2.70;1.75;;;14.10;99.90;;;;;;5040153;28;20056;-72
2022/04/23 13:12:44;;;;;;;6.78;2.60;;;14.20;99.90;;;;;;5023635;28;20059;-72
2022/04/23 13:15:11;;;;;;;2.85;1.77;;;14.50;99.90;;;;;;5058112;28;20021;-72
2022/04/23 13:17:38;;;;;;;7.53;4.90;;;14.40;99.90;;;;;;5058019;28;20056;-74
2022/04/23 13:20:11;;;;;;;2.60;1.88;;;14.60;99.90;;;;;;5023540;28;20017;-72
2022/04/23 13:22:37;;;;;;;6.65;3.63;;;14.60;99.90;;;;;;5040286;28;20044;-72
2022/04/23 13:25:05;;;;;;;1.75;1.55;;;14.50;99.90;;;;;;5058109;28;20362;-72
2022/04/23 13:27:32;;;;;;;2.97;2.70;;;14.40;99.90;;;;;;5057768;28;20017;-72
2022/04/23 13:29:58;;;;;;;1.67;1.08;;;14.40;99.90;;;;;;5057062;28;20162;-72
2022/04/23 13:32:24;;;;;;;11.15;4.65;;;14.40;99.90;;;;;;5054102;28;20025;-72
2022/04/23 13:34:50;;;;;;;6.05;2.28;;;14.40;99.90;;;;;;5054725;28;20423;-72
2022/04/23 13:37:18;;;;;;;5.95;3.45;;;14.40;99.90;;;;;;5054452;28;20036;-72
2022/04/23 13:39:44;;;;;;;1.80;1.08;;;14.40;99.90;;;;;;5055017;28;20037;-72